createdAt,value
2023-02-18T00:01:18.488Z,28.27
2023-02-18T00:04:22.100Z,29.55
2023-02-18T00:07:25.626Z,33.78
2023-02-18T00:10:29.050Z,27.30
2023-02-18T00:13:32.733Z,28.15
2023-02-18T00:16:36.504Z,29.00
2023-02-18T00:19:39.964Z,28.38
2023-02-18T00:22:43.507Z,27.02
2023-02-18T00:25:47.050Z,28.03
2023-02-18T00:28:51.978Z,25.48
2023-02-18T00:31:56.763Z,25.42
2023-02-18T00:35:00.294Z,25.75
2023-02-18T00:38:03.676Z,29.77
2023-02-18T00:41:07.180Z,26.07
2023-02-18T00:44:12.225Z,27.25
2023-02-18T00:47:15.611Z,27.45
2023-02-18T00:50:21.561Z,26.27
2023-02-18T00:53:25.005Z,26.38
2023-02-18T00:56:28.727Z,26.67
2023-02-18T00:59:32.078Z,30.67
2023-02-18T01:02:38.069Z,24.75
2023-02-18T01:05:41.819Z,25.17
2023-02-18T01:08:45.393Z,25.15
2023-02-18T01:11:48.782Z,25.97
2023-02-18T01:14:52.255Z,27.42
2023-02-18T01:17:55.748Z,26.15
2023-02-18T01:20:59.815Z,25.15
2023-02-18T01:24:03.451Z,27.92
2023-02-18T01:27:06.909Z,25.03
2023-02-18T01:30:15.018Z,28.58
2023-02-18T01:33:18.995Z,34.15
2023-02-18T01:36:22.539Z,31.95
2023-02-18T01:39:26.275Z,29.05
2023-02-18T01:42:30.625Z,30.07
2023-02-18T01:45:51.011Z,27.95
2023-02-18T01:49:00.865Z,30.27
2023-02-18T01:52:17.382Z,25.98
2023-02-18T01:55:20.846Z,26.42
2023-02-18T01:58:24.721Z,26.63
2023-02-18T02:01:29.148Z,27.70
2023-02-18T02:04:32.682Z,28.35
2023-02-18T02:07:36.252Z,25.35
2023-02-18T02:11:08.803Z,29.17
2023-02-18T02:14:21.077Z,26.37
2023-02-18T02:17:45.330Z,28.63
2023-02-18T02:21:15.644Z,25.92
2023-02-18T02:24:42.132Z,27.00
2023-02-18T02:27:48.634Z,26.65
2023-02-18T02:31:13.250Z,28.03
2023-02-18T02:34:52.367Z,27.55
2023-02-18T02:38:14.056Z,26.42
2023-02-18T02:41:31.724Z,28.42
2023-02-18T02:44:41.449Z,28.13
2023-02-18T02:47:56.716Z,28.83
2023-02-18T02:51:01.913Z,32.05
2023-02-18T02:54:19.496Z,29.73
2023-02-18T02:57:26.161Z,27.08
2023-02-18T03:00:48.962Z,28.40
2023-02-18T03:03:58.647Z,26.03
2023-02-18T03:07:12.373Z,22.83
2023-02-18T03:10:24.947Z,24.25
2023-02-18T03:13:45.692Z,27.50
2023-02-18T03:16:57.791Z,24.35
2023-02-18T03:20:13.567Z,26.00
2023-02-18T03:23:23.011Z,27.17
2023-02-18T03:26:28.665Z,26.95
2023-02-18T03:29:33.659Z,24.95
2023-02-18T03:32:37.640Z,25.20
2023-02-18T03:35:43.828Z,28.00
2023-02-18T03:39:00.084Z,31.90
2023-02-18T03:42:03.728Z,32.10
2023-02-18T03:45:07.641Z,29.83
2023-02-18T03:48:11.163Z,31.20
2023-02-18T03:51:14.634Z,25.90
2023-02-18T03:54:18.251Z,29.05
2023-02-18T03:57:21.744Z,27.15
2023-02-18T04:00:25.240Z,25.67
2023-02-18T04:03:28.646Z,24.90
2023-02-18T04:06:32.252Z,24.20
2023-02-18T04:09:35.978Z,27.52
2023-02-18T04:12:39.385Z,26.65
2023-02-18T04:15:42.772Z,26.20
2023-02-18T04:18:46.271Z,24.23
2023-02-18T04:21:49.904Z,29.27
2023-02-18T04:24:53.381Z,23.83
2023-02-18T04:27:56.836Z,24.70
2023-02-18T04:31:00.412Z,23.17
2023-02-18T04:34:04.362Z,26.10
2023-02-18T04:37:07.745Z,26.23
2023-02-18T04:40:11.588Z,28.45
2023-02-18T04:43:15.160Z,29.58
2023-02-18T04:46:18.707Z,27.98
2023-02-18T04:49:22.169Z,31.98
2023-02-18T04:52:25.681Z,29.70
2023-02-18T04:55:29.186Z,29.90
2023-02-18T04:58:32.893Z,27.40
2023-02-18T05:01:36.626Z,25.45
2023-02-18T05:04:40.160Z,28.30
2023-02-18T05:07:43.736Z,25.43
2023-02-18T05:10:47.315Z,23.40
2023-02-18T05:13:50.951Z,22.55
2023-02-18T05:16:54.550Z,27.10
2023-02-18T05:19:58.121Z,24.45
2023-02-18T05:23:01.707Z,21.57
2023-02-18T05:26:05.312Z,23.88
2023-02-18T05:29:08.729Z,31.05
2023-02-18T05:32:12.281Z,28.63
2023-02-18T05:35:15.765Z,33.88
2023-02-18T05:38:19.196Z,32.20
2023-02-18T05:41:22.776Z,49.75
2023-02-18T05:44:32.508Z,74.35
2023-02-18T05:47:35.875Z,52.38
2023-02-18T05:50:39.470Z,28.83
2023-02-18T05:53:43.265Z,37.27
2023-02-18T05:56:46.887Z,40.70
2023-02-18T05:59:50.489Z,42.70
2023-02-18T06:02:53.999Z,30.63
2023-02-18T06:05:57.722Z,33.08
2023-02-18T06:09:01.609Z,28.00
2023-02-18T06:12:05.248Z,31.88
2023-02-18T06:15:08.915Z,32.22
2023-02-18T06:18:13.059Z,28.40
2023-02-18T06:21:16.609Z,34.53
2023-02-18T06:24:20.065Z,36.50
2023-02-18T06:27:23.535Z,36.75
2023-02-18T06:30:27.755Z,38.88
2023-02-18T06:33:31.393Z,43.08
2023-02-18T06:36:34.824Z,37.70
2023-02-18T06:39:39.877Z,35.33
2023-02-18T06:42:43.244Z,34.03
2023-02-18T06:45:46.901Z,28.02
2023-02-18T06:48:50.769Z,21.80
2023-02-18T06:51:54.173Z,23.73
2023-02-18T06:54:57.555Z,25.07
2023-02-18T06:58:01.042Z,31.90
2023-02-18T07:01:04.800Z,31.35
2023-02-18T07:04:08.407Z,33.10
2023-02-18T07:07:11.969Z,29.50
2023-02-18T07:10:15.573Z,28.73
2023-02-18T07:13:19.032Z,31.15
2023-02-18T07:16:22.613Z,52.63
2023-02-18T07:19:26.301Z,90.47
2023-02-18T07:22:29.912Z,63.17
2023-02-18T07:25:33.302Z,46.47
2023-02-18T07:28:37.066Z,36.97
2023-02-18T07:31:40.623Z,24.65
2023-02-18T07:34:44.051Z,26.50
2023-02-18T07:37:49.438Z,23.27
2023-02-18T07:40:54.028Z,28.87
2023-02-18T07:43:57.533Z,26.75
2023-02-18T07:47:02.069Z,39.42
2023-02-18T07:50:06.573Z,31.15
2023-02-18T07:53:12.581Z,49.97
2023-02-18T07:56:15.994Z,48.00
2023-02-18T07:59:19.517Z,50.78
2023-02-18T08:02:25.005Z,48.85
2023-02-18T08:05:28.655Z,58.13
2023-02-18T08:08:35.783Z,68.07
2023-02-18T08:11:40.830Z,61.63
2023-02-18T08:14:44.341Z,51.42
2023-02-18T08:17:47.745Z,60.35
2023-02-18T08:20:54.262Z,66.03
2023-02-18T08:23:59.685Z,60.78
2023-02-18T08:27:03.083Z,63.23
2023-02-18T08:30:07.158Z,57.42
2023-02-18T08:33:10.626Z,42.72
2023-02-18T08:36:14.524Z,33.50
2023-02-18T08:39:18.041Z,28.58
2023-02-18T08:42:21.487Z,19.03
2023-02-18T08:45:24.997Z,16.33
2023-02-18T08:48:30.023Z,15.80
2023-02-18T08:51:34.215Z,17.50
2023-02-18T08:54:37.861Z,24.40
2023-02-18T08:57:41.361Z,19.33
2023-02-18T09:00:45.499Z,18.13
2023-02-18T09:03:49.453Z,16.27
2023-02-18T09:06:53.003Z,13.43
2023-02-18T09:09:56.968Z,14.43
2023-02-18T09:13:00.666Z,12.00
2023-02-18T09:16:07.803Z,11.02
2023-02-18T09:19:11.718Z,13.93
2023-02-18T09:22:15.912Z,10.55
2023-02-18T09:25:19.931Z,11.82
2023-02-18T09:28:24.095Z,8.77
2023-02-18T09:31:29.367Z,10.95
2023-02-18T09:34:34.352Z,7.75
2023-02-18T09:37:38.418Z,8.10
2023-02-18T09:40:48.827Z,8.25
2023-02-18T09:43:57.526Z,8.10
2023-02-18T09:47:27.504Z,7.78
2023-02-18T09:50:33.919Z,7.53
2023-02-18T09:53:38.377Z,7.50
2023-02-18T09:56:43.313Z,6.63
2023-02-18T09:59:49.006Z,8.07
2023-02-18T10:02:58.620Z,11.52
2023-02-18T10:06:05.367Z,11.27
2023-02-18T10:09:28.653Z,10.65
2023-02-18T10:12:35.064Z,8.93
2023-02-18T10:15:39.617Z,8.87
2023-02-18T10:18:50.010Z,7.10
2023-02-18T10:21:54.990Z,7.28
2023-02-18T10:25:00.891Z,8.13
2023-02-18T10:28:04.580Z,8.73
2023-02-18T10:31:15.146Z,5.90
2023-02-18T10:34:24.066Z,6.20
2023-02-18T10:38:14.259Z,7.05
2023-02-18T10:41:25.014Z,8.75
2023-02-18T10:44:37.234Z,5.93
2023-02-18T10:47:47.385Z,5.83
2023-02-18T10:50:51.093Z,7.30
2023-02-18T10:53:55.380Z,8.23
2023-02-18T10:57:04.876Z,7.70
2023-02-18T11:00:26.597Z,8.13
2023-02-18T11:03:40.908Z,9.27
2023-02-18T11:06:48.703Z,11.25
2023-02-18T11:09:56.294Z,9.98
2023-02-18T11:13:09.370Z,7.90
2023-02-18T11:16:15.830Z,9.05
2023-02-18T11:19:38.627Z,8.57
2023-02-18T11:22:43.610Z,10.70
2023-02-18T11:25:58.243Z,10.02
2023-02-18T11:29:23.280Z,8.60
2023-02-18T11:32:29.935Z,9.18
2023-02-18T11:35:34.856Z,7.83
2023-02-18T11:38:48.425Z,7.55
2023-02-18T11:42:06.770Z,7.38
2023-02-18T11:45:28.547Z,7.82
2023-02-18T11:48:32.597Z,9.75
2023-02-18T11:51:40.308Z,7.30
2023-02-18T11:54:58.619Z,8.40
2023-02-18T11:58:05.456Z,7.28
2023-02-18T12:01:33.416Z,8.05
2023-02-18T12:04:48.727Z,8.32
2023-02-18T12:08:07.716Z,8.43
2023-02-18T12:11:17.585Z,7.55
2023-02-18T12:14:25.619Z,8.15
2023-02-18T12:17:47.477Z,6.57
2023-02-18T12:21:14.864Z,7.38
2023-02-18T12:24:26.020Z,6.83
2023-02-18T12:27:58.396Z,7.15
2023-02-18T12:31:33.105Z,7.05
2023-02-18T12:34:46.966Z,6.25
2023-02-18T12:38:17.094Z,5.70
2023-02-18T12:41:47.697Z,7.70
2023-02-18T12:45:03.768Z,11.95
2023-02-18T12:48:30.143Z,5.75
2023-02-18T12:51:46.274Z,10.77
2023-02-18T12:55:28.890Z,10.18
2023-02-18T12:58:47.761Z,8.77
2023-02-18T13:02:16.222Z,6.00
2023-02-18T13:05:36.779Z,6.57
2023-02-18T13:09:04.793Z,4.90
2023-02-18T13:12:30.129Z,6.03
2023-02-18T13:15:55.451Z,3.37
2023-02-18T13:18:59.458Z,4.90
2023-02-18T13:22:08.205Z,5.25
2023-02-18T13:25:15.443Z,4.95
2023-02-18T13:28:33.534Z,4.82
2023-02-18T13:32:00.671Z,5.23
2023-02-18T13:35:36.821Z,6.40
2023-02-18T13:39:20.581Z,6.05
2023-02-18T13:42:35.792Z,4.63
2023-02-18T13:45:40.501Z,4.45
2023-02-18T13:48:53.696Z,4.13
2023-02-18T13:52:00.045Z,5.50
2023-02-18T13:55:04.282Z,5.10
2023-02-18T13:58:20.978Z,4.85
2023-02-18T14:01:31.656Z,5.95
2023-02-18T14:04:44.541Z,7.63
2023-02-18T14:07:52.265Z,6.00
2023-02-18T14:11:14.489Z,6.63
2023-02-18T14:14:27.093Z,4.80
2023-02-18T14:17:37.659Z,7.78
2023-02-18T14:20:41.316Z,6.00
2023-02-18T14:24:06.228Z,6.95
2023-02-18T14:27:17.144Z,6.25
2023-02-18T14:30:23.953Z,8.70
2023-02-18T14:33:31.862Z,6.70
2023-02-18T14:36:53.359Z,7.47
2023-02-18T14:40:18.680Z,6.60
2023-02-18T14:43:59.281Z,7.05
2023-02-18T14:47:30.614Z,5.28
2023-02-18T14:50:41.854Z,6.38
2023-02-18T14:53:46.668Z,5.47
2023-02-18T14:57:05.020Z,5.50
2023-02-18T15:00:21.932Z,6.57
2023-02-18T15:03:28.529Z,6.20
2023-02-18T15:06:35.512Z,6.82
2023-02-18T15:09:50.858Z,8.17
2023-02-18T15:12:54.343Z,9.68
2023-02-18T15:16:05.037Z,18.48
2023-02-18T15:19:15.489Z,11.18
2023-02-18T15:22:22.119Z,16.08
2023-02-18T15:25:26.652Z,11.70
2023-02-18T15:28:32.214Z,9.27
2023-02-18T15:31:41.314Z,8.38
2023-02-18T15:34:49.143Z,9.82
2023-02-18T15:37:58.036Z,7.63
2023-02-18T15:41:02.629Z,5.77
2023-02-18T15:44:08.484Z,7.40
2023-02-18T15:47:11.961Z,6.97
2023-02-18T15:50:33.647Z,6.25
2023-02-18T15:53:40.726Z,5.13
2023-02-18T15:56:49.733Z,5.47
2023-02-18T16:00:04.544Z,6.20
2023-02-18T16:03:16.310Z,5.55
2023-02-18T16:06:31.087Z,7.00
2023-02-18T16:09:41.249Z,8.20
2023-02-18T16:12:50.422Z,6.37
2023-02-18T16:15:54.796Z,5.68
2023-02-18T16:18:58.321Z,6.28
2023-02-18T16:22:08.495Z,6.10
2023-02-18T16:25:39.370Z,12.10
2023-02-18T16:28:44.118Z,38.97
2023-02-18T16:31:48.406Z,10.18
2023-02-18T16:34:51.973Z,5.30
2023-02-18T16:37:57.858Z,5.57
2023-02-18T16:41:01.315Z,5.18
2023-02-18T16:44:14.858Z,5.00
2023-02-18T16:47:28.645Z,6.95
2023-02-18T16:50:37.259Z,6.03
2023-02-18T16:53:40.877Z,6.70
2023-02-18T16:56:44.621Z,6.32
2023-02-18T16:59:48.805Z,3.63
2023-02-18T17:02:55.592Z,3.88
2023-02-18T17:05:59.253Z,5.82
2023-02-18T17:09:31.560Z,3.58
2023-02-18T17:12:35.322Z,2.75
2023-02-18T17:15:39.905Z,3.63
2023-02-18T17:18:43.986Z,5.22
2023-02-18T17:21:48.909Z,6.32
2023-02-18T17:24:52.882Z,7.25
2023-02-18T17:27:56.823Z,14.52
2023-02-18T17:31:00.631Z,7.73
2023-02-18T17:34:09.424Z,11.20
2023-02-18T17:37:15.790Z,6.70
2023-02-18T17:40:22.886Z,7.47
2023-02-18T17:43:26.887Z,7.65
2023-02-18T17:46:30.597Z,8.00
2023-02-18T17:49:34.743Z,8.45
2023-02-18T17:52:39.429Z,11.13
2023-02-18T17:55:44.499Z,7.18
2023-02-18T17:58:49.016Z,6.78
2023-02-18T18:01:52.918Z,11.27
2023-02-18T18:04:56.692Z,9.07
2023-02-18T18:08:01.391Z,8.70
2023-02-18T18:11:06.239Z,10.43
2023-02-18T18:14:15.286Z,9.55
2023-02-18T18:17:19.104Z,8.00
2023-02-18T18:20:25.282Z,10.80
2023-02-18T18:23:32.989Z,11.35
2023-02-18T18:26:36.502Z,12.23
2023-02-18T18:29:40.474Z,11.48
2023-02-18T18:32:44.229Z,11.90
2023-02-18T18:35:50.462Z,11.60
2023-02-18T18:38:56.588Z,19.80
2023-02-18T18:42:02.107Z,22.55
2023-02-18T18:45:14.138Z,19.90
2023-02-18T18:48:20.761Z,21.13
2023-02-18T18:51:32.968Z,20.63
2023-02-18T18:54:36.719Z,25.13
2023-02-18T18:57:40.396Z,22.73
2023-02-18T19:00:46.114Z,22.13
2023-02-18T19:03:50.017Z,29.40
2023-02-18T19:06:53.961Z,25.00
2023-02-18T19:09:57.683Z,41.17
2023-02-18T19:13:18.703Z,41.60
2023-02-18T19:16:29.638Z,30.38
2023-02-18T19:19:33.281Z,29.17
2023-02-18T19:22:37.007Z,44.72
2023-02-18T19:25:41.403Z,35.22
2023-02-18T19:28:46.215Z,37.40
2023-02-18T19:31:52.483Z,30.42
2023-02-18T19:34:59.546Z,30.97
2023-02-18T19:38:03.045Z,33.63
2023-02-18T19:41:14.496Z,33.65
2023-02-18T19:44:18.336Z,31.63
2023-02-18T19:47:23.392Z,31.77
2023-02-18T19:50:31.316Z,32.50
2023-02-18T19:53:34.805Z,33.97
2023-02-18T19:56:38.294Z,35.70
2023-02-18T19:59:42.104Z,38.35
2023-02-18T20:02:46.651Z,33.80
2023-02-18T20:05:50.308Z,37.70
2023-02-18T20:08:55.194Z,44.72
2023-02-18T20:11:58.982Z,40.83
2023-02-18T20:15:03.958Z,42.90
2023-02-18T20:18:08.059Z,41.58
2023-02-18T20:21:12.416Z,41.50
2023-02-18T20:24:16.469Z,38.53
2023-02-18T20:27:19.961Z,32.08
2023-02-18T20:30:23.951Z,38.65
2023-02-18T20:33:28.137Z,36.85
2023-02-18T20:36:31.946Z,36.20
2023-02-18T20:39:35.670Z,39.67
2023-02-18T20:42:39.595Z,43.60
2023-02-18T20:45:43.399Z,41.90
2023-02-18T20:48:48.266Z,39.30
2023-02-18T20:51:52.065Z,39.77
2023-02-18T20:54:55.821Z,39.47
2023-02-18T20:57:59.634Z,43.85
2023-02-18T21:01:10.006Z,38.33
2023-02-18T21:04:17.121Z,36.95
2023-02-18T21:07:22.429Z,41.83
2023-02-18T21:10:26.111Z,39.92
2023-02-18T21:13:29.921Z,41.70
2023-02-18T21:16:38.651Z,42.20
2023-02-18T21:19:42.446Z,44.03
2023-02-18T21:22:46.178Z,47.83
2023-02-18T21:25:49.968Z,37.53
2023-02-18T21:28:56.731Z,45.55
2023-02-18T21:32:01.091Z,42.00
2023-02-18T21:35:04.842Z,45.72
2023-02-18T21:38:10.130Z,44.73
2023-02-18T21:41:13.992Z,45.63
2023-02-18T21:44:17.706Z,48.20
2023-02-18T21:47:21.183Z,46.75
2023-02-18T21:50:26.769Z,46.08
2023-02-18T21:53:30.410Z,49.00
2023-02-18T21:56:33.975Z,45.78
2023-02-18T21:59:38.373Z,47.13
2023-02-18T22:02:41.762Z,40.97
2023-02-18T22:05:45.576Z,43.08
2023-02-18T22:08:49.222Z,50.33
2023-02-18T22:11:53.180Z,45.10
2023-02-18T22:14:56.588Z,51.45
2023-02-18T22:17:59.980Z,45.10
2023-02-18T22:21:10.607Z,47.88
2023-02-18T22:24:16.702Z,47.23
2023-02-18T22:27:20.271Z,44.95
2023-02-18T22:30:25.209Z,45.08
2023-02-18T22:33:28.814Z,48.47
2023-02-18T22:36:33.176Z,47.90
2023-02-18T22:39:36.850Z,44.00
2023-02-18T22:42:40.258Z,44.00
2023-02-18T22:45:43.908Z,45.15
2023-02-18T22:48:47.614Z,43.53
2023-02-18T22:51:55.038Z,39.13
2023-02-18T22:54:58.483Z,41.30
2023-02-18T22:58:01.891Z,42.65
2023-02-18T23:01:07.184Z,47.20
2023-02-18T23:04:13.743Z,43.20
2023-02-18T23:07:17.176Z,46.88
2023-02-18T23:10:21.750Z,40.80
2023-02-18T23:13:25.211Z,40.35
2023-02-18T23:16:28.640Z,39.72
2023-02-18T23:19:33.266Z,38.47
2023-02-18T23:22:37.996Z,38.85
2023-02-18T23:25:41.531Z,43.10
2023-02-18T23:28:48.254Z,44.92
2023-02-18T23:31:51.817Z,41.78
2023-02-18T23:34:55.266Z,39.15
2023-02-18T23:38:06.022Z,40.53
2023-02-18T23:41:10.168Z,43.50
2023-02-18T23:44:16.494Z,37.35
2023-02-18T23:47:19.902Z,44.22
2023-02-18T23:50:23.386Z,40.63
2023-02-18T23:53:28.801Z,44.83
2023-02-18T23:56:33.191Z,40.30
2023-02-18T23:59:36.630Z,38.78
